sensor_id;sensor_type;location;lat;lon;timestamp;pressure;altitude;pressure_sealevel;temperature;humidity
6395;BME280;3230;42.588;23.358;2022-07-29T00:01:33;91327.84;;;15.96;100.00
6395;BME280;3230;42.588;23.358;2022-07-29T00:03:58;91328.31;;;15.98;100.00
6395;BME280;3230;42.588;23.358;2022-07-29T00:06:24;91323.78;;;16.13;100.00
6395;BME280;3230;42.588;23.358;2022-07-29T00:08:49;91325.53;;;16.18;100.00
6395;BME280;3230;42.588;23.358;2022-07-29T00:11:14;91332.97;;;16.15;100.00
6395;BME280;3230;42.588;23.358;2022-07-29T00:13:40;91338.44;;;16.19;100.00
6395;BME280;3230;42.588;23.358;2022-07-29T00:16:05;91338.78;;;16.26;100.00
6395;BME280;3230;42.588;23.358;2022-07-29T00:18:32;91332.44;;;16.27;100.00
6395;BME280;3230;42.588;23.358;2022-07-29T00:20:57;91342.34;;;16.22;100.00
6395;BME280;3230;42.588;23.358;2022-07-29T00:23:22;91337.59;;;16.33;100.00
6395;BME280;3230;42.588;23.358;2022-07-29T00:25:48;91343.50;;;16.29;100.00
6395;BME280;3230;42.588;23.358;2022-07-29T00:28:13;91337.78;;;16.36;100.00
6395;BME280;3230;42.588;23.358;2022-07-29T00:30:39;91332.66;;;16.40;100.00
6395;BME280;3230;42.588;23.358;2022-07-29T00:33:07;91329.53;;;16.38;100.00
6395;BME280;3230;42.588;23.358;2022-07-29T00:35:32;91330.91;;;16.35;100.00
6395;BME280;3230;42.588;23.358;2022-07-29T00:38:18;91338.53;;;16.37;100.00
6395;BME280;3230;42.588;23.358;2022-07-29T00:40:44;91335.00;;;16.41;100.00
6395;BME280;3230;42.588;23.358;2022-07-29T00:43:10;91335.19;;;16.45;100.00
6395;BME280;3230;42.588;23.358;2022-07-29T00:45:36;91336.56;;;16.42;100.00
6395;BME280;3230;42.588;23.358;2022-07-29T00:48:02;91333.88;;;16.34;100.00
6395;BME280;3230;42.588;23.358;2022-07-29T00:50:30;91339.41;;;16.46;100.00
6395;BME280;3230;42.588;23.358;2022-07-29T00:52:56;91333.38;;;16.31;100.00
6395;BME280;3230;42.588;23.358;2022-07-29T00:55:22;91339.28;;;16.28;100.00
6395;BME280;3230;42.588;23.358;2022-07-29T00:57:47;91339.31;;;16.14;100.00
6395;BME280;3230;42.588;23.358;2022-07-29T01:00:18;91334.84;;;16.15;100.00
6395;BME280;3230;42.588;23.358;2022-07-29T01:02:45;91335.47;;;16.21;100.00
6395;BME280;3230;42.588;23.358;2022-07-29T01:05:13;91329.84;;;16.13;100.00
6395;BME280;3230;42.588;23.358;2022-07-29T01:07:40;91328.19;;;16.04;100.00
6395;BME280;3230;42.588;23.358;2022-07-29T01:10:08;91318.88;;;16.06;100.00
6395;BME280;3230;42.588;23.358;2022-07-29T01:12:35;91317.44;;;16.00;100.00
6395;BME280;3230;42.588;23.358;2022-07-29T01:15:03;91318.72;;;16.03;100.00
6395;BME280;3230;42.588;23.358;2022-07-29T01:20:31;91324.84;;;16.12;100.00
6395;BME280;3230;42.588;23.358;2022-07-29T01:23:37;91321.25;;;16.08;100.00
6395;BME280;3230;42.588;23.358;2022-07-29T01:29:03;91326.16;;;16.01;100.00
6395;BME280;3230;42.588;23.358;2022-07-29T01:31:54;91320.22;;;15.95;100.00
6395;BME280;3230;42.588;23.358;2022-07-29T01:34:24;91321.09;;;15.90;100.00
6395;BME280;3230;42.588;23.358;2022-07-29T01:36:57;91320.41;;;15.98;100.00
6395;BME280;3230;42.588;23.358;2022-07-29T01:39:32;91327.09;;;15.82;100.00
6395;BME280;3230;42.588;23.358;2022-07-29T01:44:38;91313.84;;;15.96;100.00
6395;BME280;3230;42.588;23.358;2022-07-29T01:47:14;91313.41;;;16.03;100.00
6395;BME280;3230;42.588;23.358;2022-07-29T01:49:47;91308.97;;;15.89;100.00
6395;BME280;3230;42.588;23.358;2022-07-29T01:52:52;91313.97;;;15.77;100.00
6395;BME280;3230;42.588;23.358;2022-07-29T01:55:20;91306.16;;;15.72;100.00
6395;BME280;3230;42.588;23.358;2022-07-29T01:57:48;91305.56;;;15.75;100.00
6395;BME280;3230;42.588;23.358;2022-07-29T02:00:14;91306.84;;;15.77;100.00
6395;BME280;3230;42.588;23.358;2022-07-29T02:02:43;91310.16;;;15.83;100.00
6395;BME280;3230;42.588;23.358;2022-07-29T02:05:11;91309.47;;;15.77;100.00
6395;BME280;3230;42.588;23.358;2022-07-29T02:07:39;91309.88;;;15.85;100.00
6395;BME280;3230;42.588;23.358;2022-07-29T02:10:07;91310.16;;;15.83;100.00
6395;BME280;3230;42.588;23.358;2022-07-29T02:12:34;91307.78;;;15.81;100.00
6395;BME280;3230;42.588;23.358;2022-07-29T02:15:03;91310.34;;;15.87;100.00
6395;BME280;3230;42.588;23.358;2022-07-29T02:17:41;91310.53;;;15.90;100.00
6395;BME280;3230;42.588;23.358;2022-07-29T02:20:08;91307.25;;;15.85;100.00
6395;BME280;3230;42.588;23.358;2022-07-29T02:22:37;91308.41;;;15.78;100.00
6395;BME280;3230;42.588;23.358;2022-07-29T02:25:04;91310.94;;;15.70;100.00
6395;BME280;3230;42.588;23.358;2022-07-29T02:27:33;91306.03;;;15.77;100.00
6395;BME280;3230;42.588;23.358;2022-07-29T02:30:00;91307.59;;;15.78;100.00
6395;BME280;3230;42.588;23.358;2022-07-29T02:32:27;91303.59;;;15.80;100.00
6395;BME280;3230;42.588;23.358;2022-07-29T02:34:54;91306.94;;;15.72;100.00
6395;BME280;3230;42.588;23.358;2022-07-29T02:37:20;91306.44;;;15.84;100.00
6395;BME280;3230;42.588;23.358;2022-07-29T02:39:47;91304.28;;;15.72;100.00
6395;BME280;3230;42.588;23.358;2022-07-29T02:42:15;91293.53;;;15.82;100.00
6395;BME280;3230;42.588;23.358;2022-07-29T02:44:41;91300.16;;;15.80;100.00
6395;BME280;3230;42.588;23.358;2022-07-29T02:49:43;91289.03;;;15.83;100.00
6395;BME280;3230;42.588;23.358;2022-07-29T02:52:20;91287.19;;;15.83;100.00
6395;BME280;3230;42.588;23.358;2022-07-29T02:55:00;91284.72;;;15.87;100.00
6395;BME280;3230;42.588;23.358;2022-07-29T02:57:54;91281.38;;;15.95;100.00
6395;BME280;3230;42.588;23.358;2022-07-29T03:00:16;91273.31;;;16.01;100.00
6395;BME280;3230;42.588;23.358;2022-07-29T03:02:44;91275.97;;;16.01;100.00
6395;BME280;3230;42.588;23.358;2022-07-29T03:05:15;91272.88;;;16.07;100.00
6395;BME280;3230;42.588;23.358;2022-07-29T03:07:43;91269.34;;;16.12;100.00
6395;BME280;3230;42.588;23.358;2022-07-29T03:10:11;91268.84;;;16.10;100.00
6395;BME280;3230;42.588;23.358;2022-07-29T03:12:37;91271.69;;;16.13;100.00
6395;BME280;3230;42.588;23.358;2022-07-29T03:15:03;91268.75;;;16.15;100.00
6395;BME280;3230;42.588;23.358;2022-07-29T03:17:29;91273.69;;;16.08;100.00
6395;BME280;3230;42.588;23.358;2022-07-29T03:19:56;91277.44;;;16.15;100.00
6395;BME280;3230;42.588;23.358;2022-07-29T03:22:23;91273.41;;;16.18;100.00
6395;BME280;3230;42.588;23.358;2022-07-29T03:24:49;91278.13;;;16.21;100.00
6395;BME280;3230;42.588;23.358;2022-07-29T03:27:14;91269.69;;;16.19;100.00
6395;BME280;3230;42.588;23.358;2022-07-29T03:29:40;91280.88;;;16.16;100.00
6395;BME280;3230;42.588;23.358;2022-07-29T03:32:06;91275.59;;;16.16;100.00
6395;BME280;3230;42.588;23.358;2022-07-29T03:34:31;91279.91;;;16.12;100.00
6395;BME280;3230;42.588;23.358;2022-07-29T03:36:57;91274.56;;;16.03;100.00
6395;BME280;3230;42.588;23.358;2022-07-29T03:39:25;91273.63;;;15.99;100.00
6395;BME280;3230;42.588;23.358;2022-07-29T03:41:55;91275.06;;;16.05;100.00
6395;BME280;3230;42.588;23.358;2022-07-29T03:44:21;91275.06;;;16.05;100.00
6395;BME280;3230;42.588;23.358;2022-07-29T03:46:49;91284.00;;;15.95;100.00
6395;BME280;3230;42.588;23.358;2022-07-29T03:49:17;91278.78;;;16.04;100.00
6395;BME280;3230;42.588;23.358;2022-07-29T03:51:44;91280.63;;;16.04;100.00
6395;BME280;3230;42.588;23.358;2022-07-29T03:54:10;91276.41;;;16.03;100.00
6395;BME280;3230;42.588;23.358;2022-07-29T03:56:43;91287.00;;;16.03;100.00
6395;BME280;3230;42.588;23.358;2022-07-29T03:59:11;91284.63;;;16.15;100.00
6395;BME280;3230;42.588;23.358;2022-07-29T04:01:38;91290.13;;;16.27;100.00
6395;BME280;3230;42.588;23.358;2022-07-29T04:04:04;91297.16;;;16.32;100.00
6395;BME280;3230;42.588;23.358;2022-07-29T04:06:38;91285.91;;;16.26;100.00
6395;BME280;3230;42.588;23.358;2022-07-29T04:09:03;91289.50;;;16.30;100.00
6395;BME280;3230;42.588;23.358;2022-07-29T04:11:29;91287.50;;;16.59;100.00
6395;BME280;3230;42.588;23.358;2022-07-29T04:13:54;91285.31;;;16.61;100.00
6395;BME280;3230;42.588;23.358;2022-07-29T04:16:20;91291.28;;;16.67;100.00
6395;BME280;3230;42.588;23.358;2022-07-29T04:18:45;91287.84;;;16.98;100.00
6395;BME280;3230;42.588;23.358;2022-07-29T04:21:10;91284.19;;;17.16;100.00
6395;BME280;3230;42.588;23.358;2022-07-29T04:23:36;91287.34;;;17.36;100.00
6395;BME280;3230;42.588;23.358;2022-07-29T04:26:01;91295.03;;;17.64;100.00
6395;BME280;3230;42.588;23.358;2022-07-29T04:28:26;91290.53;;;17.82;100.00
6395;BME280;3230;42.588;23.358;2022-07-29T04:30:52;91300.34;;;17.90;100.00
6395;BME280;3230;42.588;23.358;2022-07-29T04:33:17;91299.13;;;18.14;100.00
6395;BME280;3230;42.588;23.358;2022-07-29T04:35:43;91307.81;;;18.58;100.00
6395;BME280;3230;42.588;23.358;2022-07-29T04:38:08;91309.81;;;19.26;100.00
6395;BME280;3230;42.588;23.358;2022-07-29T04:40:34;91309.69;;;19.74;100.00
6395;BME280;3230;42.588;23.358;2022-07-29T04:43:00;91318.50;;;20.17;100.00
6395;BME280;3230;42.588;23.358;2022-07-29T04:45:27;91326.34;;;22.13;93.76
6395;BME280;3230;42.588;23.358;2022-07-29T04:47:52;91335.25;;;23.78;85.43
6395;BME280;3230;42.588;23.358;2022-07-29T04:50:17;91344.97;;;24.58;76.06
6395;BME280;3230;42.588;23.358;2022-07-29T04:52:43;91335.91;;;23.91;78.87
6395;BME280;3230;42.588;23.358;2022-07-29T04:55:09;91329.03;;;23.10;84.32
6395;BME280;3230;42.588;23.358;2022-07-29T04:57:34;91333.38;;;22.87;85.14
6395;BME280;3230;42.588;23.358;2022-07-29T05:00:00;91342.59;;;24.53;78.26
6395;BME280;3230;42.588;23.358;2022-07-29T05:02:25;91348.75;;;27.34;70.02
6395;BME280;3230;42.588;23.358;2022-07-29T05:04:51;91347.31;;;29.65;60.78
6395;BME280;3230;42.588;23.358;2022-07-29T05:07:16;91337.88;;;30.93;56.58
6395;BME280;3230;42.588;23.358;2022-07-29T05:09:42;91337.16;;;31.60;52.28
6395;BME280;3230;42.588;23.358;2022-07-29T05:12:08;91335.34;;;32.02;52.70
6395;BME280;3230;42.588;23.358;2022-07-29T05:14:33;91340.19;;;31.72;54.08
6395;BME280;3230;42.588;23.358;2022-07-29T05:16:59;91337.44;;;32.29;51.87
6395;BME280;3230;42.588;23.358;2022-07-29T05:19:24;91339.69;;;32.37;49.83
6395;BME280;3230;42.588;23.358;2022-07-29T05:21:50;91343.06;;;31.47;53.14
6395;BME280;3230;42.588;23.358;2022-07-29T05:24:15;91335.69;;;32.04;51.60
6395;BME280;3230;42.588;23.358;2022-07-29T05:29:06;91347.50;;;34.18;nan
6395;BME280;3230;42.588;23.358;2022-07-29T05:31:32;91347.38;;;33.15;nan
6395;BME280;3230;42.588;23.358;2022-07-29T05:33:58;91344.28;;;33.99;nan
6395;BME280;3230;42.588;23.358;2022-07-29T05:36:24;91348.72;;;34.61;nan
6395;BME280;3230;42.588;23.358;2022-07-29T05:38:49;91343.13;;;35.28;nan
6395;BME280;3230;42.588;23.358;2022-07-29T05:41:15;91340.41;;;35.28;nan
6395;BME280;3230;42.588;23.358;2022-07-29T05:43:41;91348.72;;;35.78;nan
6395;BME280;3230;42.588;23.358;2022-07-29T05:46:07;91341.78;;;35.93;nan
6395;BME280;3230;42.588;23.358;2022-07-29T05:48:32;91348.53;;;36.68;nan
6395;BME280;3230;42.588;23.358;2022-07-29T05:50:57;91344.41;;;35.44;nan
6395;BME280;3230;42.588;23.358;2022-07-29T05:53:23;91351.94;;;36.72;nan
6395;BME280;3230;42.588;23.358;2022-07-29T05:55:48;91344.97;;;37.81;nan
6395;BME280;3230;42.588;23.358;2022-07-29T05:58:14;91349.31;;;36.97;nan
6395;BME280;3230;42.588;23.358;2022-07-29T06:00:40;91341.72;;;37.05;nan
6395;BME280;3230;42.588;23.358;2022-07-29T06:03:05;91349.09;;;36.75;nan
6395;BME280;3230;42.588;23.358;2022-07-29T06:05:31;91346.38;;;36.92;nan
6395;BME280;3230;42.588;23.358;2022-07-29T06:07:56;91345.78;;;37.13;nan
6395;BME280;3230;42.588;23.358;2022-07-29T06:10:22;91345.66;;;37.17;nan
6395;BME280;3230;42.588;23.358;2022-07-29T06:12:47;91346.94;;;37.00;nan
6395;BME280;3230;42.588;23.358;2022-07-29T06:15:13;91351.56;;;36.24;nan
6395;BME280;3230;42.588;23.358;2022-07-29T06:17:38;91351.63;;;36.53;nan
6395;BME280;3230;42.588;23.358;2022-07-29T06:20:04;91349.13;;;37.73;nan
6395;BME280;3230;42.588;23.358;2022-07-29T06:22:29;91355.59;;;38.31;nan
6395;BME280;3230;42.588;23.358;2022-07-29T06:24:55;91355.22;;;38.90;nan
6395;BME280;3230;42.588;23.358;2022-07-29T06:27:20;91357.97;;;38.90;nan
6395;BME280;3230;42.588;23.358;2022-07-29T06:30:23;91356.28;;;38.57;nan
6395;BME280;3230;42.588;23.358;2022-07-29T06:32:49;91359.03;;;39.14;nan
6395;BME280;3230;42.588;23.358;2022-07-29T06:35:14;91354.19;;;38.00;nan
6395;BME280;3230;42.588;23.358;2022-07-29T06:37:40;91355.72;;;38.97;nan
6395;BME280;3230;42.588;23.358;2022-07-29T06:40:05;91353.44;;;39.62;nan
6395;BME280;3230;42.588;23.358;2022-07-29T06:42:49;91357.75;;;39.73;nan
6395;BME280;3230;42.588;23.358;2022-07-29T06:45:15;91355.06;;;39.28;nan
6395;BME280;3230;42.588;23.358;2022-07-29T06:47:41;91352.09;;;39.67;nan
6395;BME280;3230;42.588;23.358;2022-07-29T06:50:07;91347.91;;;39.85;nan
6395;BME280;3230;42.588;23.358;2022-07-29T06:52:33;91350.53;;;39.12;nan
6395;BME280;3230;42.588;23.358;2022-07-29T06:54:58;91350.13;;;38.79;nan
6395;BME280;3230;42.588;23.358;2022-07-29T06:57:24;91345.47;;;38.53;nan
6395;BME280;3230;42.588;23.358;2022-07-29T06:59:50;91344.03;;;37.88;nan
6395;BME280;3230;42.588;23.358;2022-07-29T07:02:15;91342.03;;;38.14;nan
6395;BME280;3230;42.588;23.358;2022-07-29T07:04:40;91341.56;;;38.42;nan
6395;BME280;3230;42.588;23.358;2022-07-29T07:07:06;91340.56;;;38.83;nan
6395;BME280;3230;42.588;23.358;2022-07-29T07:09:31;91349.22;;;39.48;nan
6395;BME280;3230;42.588;23.358;2022-07-29T07:11:57;91345.94;;;38.87;nan
6395;BME280;3230;42.588;23.358;2022-07-29T07:14:22;91356.88;;;38.87;nan
6395;BME280;3230;42.588;23.358;2022-07-29T07:16:48;91346.59;;;38.43;nan
6395;BME280;3230;42.588;23.358;2022-07-29T07:19:13;91346.94;;;38.45;nan
6395;BME280;3230;42.588;23.358;2022-07-29T07:21:39;91351.03;;;38.63;nan
6395;BME280;3230;42.588;23.358;2022-07-29T07:24:04;91357.13;;;38.80;nan
6395;BME280;3230;42.588;23.358;2022-07-29T07:26:30;91335.03;;;38.39;nan
6395;BME280;3230;42.588;23.358;2022-07-29T07:28:56;91344.41;;;37.48;nan
6395;BME280;3230;42.588;23.358;2022-07-29T07:31:21;91339.19;;;37.53;nan
6395;BME280;3230;42.588;23.358;2022-07-29T07:33:47;91344.22;;;38.06;nan
6395;BME280;3230;42.588;23.358;2022-07-29T07:36:12;91343.22;;;37.36;nan
6395;BME280;3230;42.588;23.358;2022-07-29T07:38:38;91344.56;;;37.83;nan
6395;BME280;3230;42.588;23.358;2022-07-29T07:41:04;91343.38;;;38.58;nan
6395;BME280;3230;42.588;23.358;2022-07-29T07:43:29;91350.97;;;39.87;nan
6395;BME280;3230;42.588;23.358;2022-07-29T07:45:55;91344.13;;;40.51;nan
6395;BME280;3230;42.588;23.358;2022-07-29T07:48:20;91336.44;;;40.18;nan
6395;BME280;3230;42.588;23.358;2022-07-29T07:50:46;91344.81;;;41.01;nan
6395;BME280;3230;42.588;23.358;2022-07-29T07:53:11;91342.97;;;40.89;nan
6395;BME280;3230;42.588;23.358;2022-07-29T07:55:43;91340.78;;;40.47;nan
6395;BME280;3230;42.588;23.358;2022-07-29T07:58:09;91338.53;;;40.91;nan
6395;BME280;3230;42.588;23.358;2022-07-29T08:00:35;91339.59;;;41.13;nan
6395;BME280;3230;42.588;23.358;2022-07-29T08:03:00;91345.69;;;41.26;nan
6395;BME280;3230;42.588;23.358;2022-07-29T08:05:26;91343.13;;;41.13;nan
6395;BME280;3230;42.588;23.358;2022-07-29T08:07:51;91343.28;;;41.80;nan
6395;BME280;3230;42.588;23.358;2022-07-29T08:10:18;91348.72;;;41.47;nan
6395;BME280;3230;42.588;23.358;2022-07-29T08:13:05;91347.41;;;40.86;nan
6395;BME280;3230;42.588;23.358;2022-07-29T08:15:31;91352.88;;;40.96;nan
6395;BME280;3230;42.588;23.358;2022-07-29T08:17:56;91351.19;;;40.80;nan
6395;BME280;3230;42.588;23.358;2022-07-29T08:20:22;91344.66;;;40.86;nan
6395;BME280;3230;42.588;23.358;2022-07-29T08:22:47;91346.63;;;40.67;nan
6395;BME280;3230;42.588;23.358;2022-07-29T08:25:12;91341.13;;;41.23;nan
6395;BME280;3230;42.588;23.358;2022-07-29T08:27:38;91348.72;;;40.54;nan
6395;BME280;3230;42.588;23.358;2022-07-29T08:30:03;91346.13;;;40.50;nan
6395;BME280;3230;42.588;23.358;2022-07-29T08:32:29;91350.19;;;41.66;nan
6395;BME280;3230;42.588;23.358;2022-07-29T08:34:56;91347.19;;;41.46;nan
6395;BME280;3230;42.588;23.358;2022-07-29T08:37:22;91350.78;;;41.80;nan
6395;BME280;3230;42.588;23.358;2022-07-29T08:39:47;91344.50;;;40.81;nan
6395;BME280;3230;42.588;23.358;2022-07-29T08:42:12;91342.00;;;40.45;nan
6395;BME280;3230;42.588;23.358;2022-07-29T08:44:38;91343.88;;;41.04;nan
6395;BME280;3230;42.588;23.358;2022-07-29T08:47:04;91345.34;;;41.52;nan
6395;BME280;3230;42.588;23.358;2022-07-29T08:49:30;91339.00;;;40.81;nan
6395;BME280;3230;42.588;23.358;2022-07-29T08:51:57;91344.75;;;39.64;nan
6395;BME280;3230;42.588;23.358;2022-07-29T08:54:23;91343.41;;;40.69;nan
6395;BME280;3230;42.588;23.358;2022-07-29T08:56:50;91350.91;;;40.68;nan
6395;BME280;3230;42.588;23.358;2022-07-29T08:59:22;91334.13;;;40.75;nan
6395;BME280;3230;42.588;23.358;2022-07-29T09:01:51;91340.81;;;40.93;nan
6395;BME280;3230;42.588;23.358;2022-07-29T09:04:18;91329.78;;;40.28;nan
6395;BME280;3230;42.588;23.358;2022-07-29T09:06:48;91331.59;;;40.31;nan
6395;BME280;3230;42.588;23.358;2022-07-29T09:09:15;91339.50;;;39.03;nan
6395;BME280;3230;42.588;23.358;2022-07-29T09:11:41;91343.66;;;38.85;nan
6395;BME280;3230;42.588;23.358;2022-07-29T09:14:08;91323.88;;;37.43;nan
6395;BME280;3230;42.588;23.358;2022-07-29T09:16:45;91324.09;;;35.81;nan
6395;BME280;3230;42.588;23.358;2022-07-29T09:19:28;91328.22;;;34.76;nan
6395;BME280;3230;42.588;23.358;2022-07-29T09:21:55;91325.50;;;34.32;nan
6395;BME280;3230;42.588;23.358;2022-07-29T09:24:45;91327.94;;;33.48;nan
6395;BME280;3230;42.588;23.358;2022-07-29T09:27:19;91322.38;;;32.97;nan
6395;BME280;3230;42.588;23.358;2022-07-29T09:29:46;91323.63;;;32.12;nan
6395;BME280;3230;42.588;23.358;2022-07-29T09:32:11;91317.41;;;32.15;nan
6395;BME280;3230;42.588;23.358;2022-07-29T09:34:37;91320.25;;;32.01;nan
6395;BME280;3230;42.588;23.358;2022-07-29T09:37:03;91317.72;;;31.76;nan
6395;BME280;3230;42.588;23.358;2022-07-29T09:39:39;91318.00;;;31.29;nan
6395;BME280;3230;42.588;23.358;2022-07-29T09:42:11;91318.81;;;31.25;nan
6395;BME280;3230;42.588;23.358;2022-07-29T09:44:45;91313.03;;;31.20;nan
6395;BME280;3230;42.588;23.358;2022-07-29T09:47:12;91313.94;;;30.88;nan
6395;BME280;3230;42.588;23.358;2022-07-29T09:49:55;91314.03;;;30.70;nan
6395;BME280;3230;42.588;23.358;2022-07-29T09:52:23;91309.06;;;30.39;nan
6395;BME280;3230;42.588;23.358;2022-07-29T09:54:49;91314.16;;;30.08;nan
6395;BME280;3230;42.588;23.358;2022-07-29T09:57:28;91310.66;;;29.75;nan
6395;BME280;3230;42.588;23.358;2022-07-29T10:02:22;91305.28;;;29.64;nan
6395;BME280;3230;42.588;23.358;2022-07-29T10:04:52;91306.44;;;29.56;nan
6395;BME280;3230;42.588;23.358;2022-07-29T10:07:17;91299.09;;;29.42;nan
6395;BME280;3230;42.588;23.358;2022-07-29T10:09:56;91289.00;;;29.17;nan
6395;BME280;3230;42.588;23.358;2022-07-29T10:12:23;91288.22;;;29.02;nan
6395;BME280;3230;42.588;23.358;2022-07-29T10:14:49;91295.47;;;28.84;nan
6395;BME280;3230;42.588;23.358;2022-07-29T10:17:16;91288.94;;;28.85;nan
6395;BME280;3230;42.588;23.358;2022-07-29T10:19:43;91292.31;;;28.64;nan
6395;BME280;3230;42.588;23.358;2022-07-29T10:22:10;91283.91;;;28.72;nan
6395;BME280;3230;42.588;23.358;2022-07-29T10:24:39;91286.59;;;28.72;nan
6395;BME280;3230;42.588;23.358;2022-07-29T10:27:07;91278.38;;;28.47;nan
6395;BME280;3230;42.588;23.358;2022-07-29T10:29:33;91279.09;;;28.30;nan
6395;BME280;3230;42.588;23.358;2022-07-29T10:43:30;91272.38;;;28.79;nan
6395;BME280;3230;42.588;23.358;2022-07-29T10:45:59;91278.16;;;28.88;nan
6395;BME280;3230;42.588;23.358;2022-07-29T10:48:26;91274.69;;;28.81;nan
6395;BME280;3230;42.588;23.358;2022-07-29T10:53:24;91265.84;;;29.02;nan
6395;BME280;3230;42.588;23.358;2022-07-29T10:55:51;91267.81;;;29.16;nan
6395;BME280;3230;42.588;23.358;2022-07-29T10:58:22;91261.63;;;29.12;nan
6395;BME280;3230;42.588;23.358;2022-07-29T11:00:52;91258.16;;;29.08;nan
6395;BME280;3230;42.588;23.358;2022-07-29T11:06:05;91258.19;;;29.15;nan
6395;BME280;3230;42.588;23.358;2022-07-29T11:08:31;91257.41;;;29.29;nan
6395;BME280;3230;42.588;23.358;2022-07-29T11:16:09;91256.69;;;29.64;nan
6395;BME280;3230;42.588;23.358;2022-07-29T11:18:34;91252.06;;;29.68;nan
6395;BME280;3230;42.588;23.358;2022-07-29T11:21:00;91254.75;;;29.61;nan
6395;BME280;3230;42.588;23.358;2022-07-29T11:23:29;91256.66;;;29.21;nan
6395;BME280;3230;42.588;23.358;2022-07-29T11:31:13;91248.97;;;29.45;nan
6395;BME280;3230;42.588;23.358;2022-07-29T11:33:38;91248.59;;;29.32;nan
6395;BME280;3230;42.588;23.358;2022-07-29T11:36:13;91243.97;;;29.40;nan
6395;BME280;3230;42.588;23.358;2022-07-29T11:38:39;91254.34;;;29.45;nan
6395;BME280;3230;42.588;23.358;2022-07-29T11:43:50;91238.91;;;29.09;nan
6395;BME280;3230;42.588;23.358;2022-07-29T11:46:48;91248.13;;;28.94;nan
6395;BME280;3230;42.588;23.358;2022-07-29T11:49:24;91248.47;;;28.78;nan
6395;BME280;3230;42.588;23.358;2022-07-29T11:51:55;91241.84;;;28.64;nan
6395;BME280;3230;42.588;23.358;2022-07-29T11:54:33;91241.53;;;28.77;nan
6395;BME280;3230;42.588;23.358;2022-07-29T11:56:59;91240.72;;;28.65;nan
6395;BME280;3230;42.588;23.358;2022-07-29T11:59:25;91241.09;;;28.67;nan
6395;BME280;3230;42.588;23.358;2022-07-29T12:01:55;91243.78;;;28.64;nan
6395;BME280;3230;42.588;23.358;2022-07-29T12:04:21;91235.22;;;28.40;nan
6395;BME280;3230;42.588;23.358;2022-07-29T12:06:53;91239.84;;;28.36;nan
6395;BME280;3230;42.588;23.358;2022-07-29T12:09:20;91241.78;;;28.46;nan
6395;BME280;3230;42.588;23.358;2022-07-29T12:11:46;91242.59;;;28.54;nan
6395;BME280;3230;42.588;23.358;2022-07-29T12:14:44;91242.63;;;28.61;nan
6395;BME280;3230;42.588;23.358;2022-07-29T12:17:33;91240.66;;;28.54;nan
6395;BME280;3230;42.588;23.358;2022-07-29T12:20:02;91247.22;;;28.57;nan
6395;BME280;3230;42.588;23.358;2022-07-29T12:22:31;91246.47;;;28.56;nan
6395;BME280;3230;42.588;23.358;2022-07-29T12:25:08;91244.91;;;28.52;nan
6395;BME280;3230;42.588;23.358;2022-07-29T12:27:35;91234.97;;;28.70;nan
6395;BME280;3230;42.588;23.358;2022-07-29T12:30:07;91231.47;;;28.66;nan
6395;BME280;3230;42.588;23.358;2022-07-29T12:32:51;91238.78;;;28.62;nan
6395;BME280;3230;42.588;23.358;2022-07-29T12:35:19;91244.16;;;28.59;nan
6395;BME280;3230;42.588;23.358;2022-07-29T12:37:46;91239.50;;;28.48;nan
6395;BME280;3230;42.588;23.358;2022-07-29T12:40:17;91229.88;;;28.54;nan
6395;BME280;3230;42.588;23.358;2022-07-29T12:43:11;91238.00;;;28.62;nan
6395;BME280;3230;42.588;23.358;2022-07-29T12:45:39;91238.75;;;28.55;nan
6395;BME280;3230;42.588;23.358;2022-07-29T12:48:06;91230.31;;;28.60;nan
6395;BME280;3230;42.588;23.358;2022-07-29T12:50:34;91232.53;;;28.44;nan
6395;BME280;3230;42.588;23.358;2022-07-29T12:53:11;91233.38;;;28.55;nan
6395;BME280;3230;42.588;23.358;2022-07-29T12:55:41;91238.38;;;28.56;nan
6395;BME280;3230;42.588;23.358;2022-07-29T12:58:07;91225.28;;;28.55;nan
6395;BME280;3230;42.588;23.358;2022-07-29T13:00:33;91224.91;;;28.56;nan
6395;BME280;3230;42.588;23.358;2022-07-29T13:03:00;91221.06;;;28.61;nan
6395;BME280;3230;42.588;23.358;2022-07-29T13:05:40;91222.94;;;28.50;nan
6395;BME280;3230;42.588;23.358;2022-07-29T13:08:16;91219.47;;;28.46;nan
6395;BME280;3230;42.588;23.358;2022-07-29T13:10:45;91218.75;;;28.52;nan
6395;BME280;3230;42.588;23.358;2022-07-29T13:13:15;91224.88;;;28.53;nan
6395;BME280;3230;42.588;23.358;2022-07-29T13:15:45;91218.75;;;28.56;nan
6395;BME280;3230;42.588;23.358;2022-07-29T13:18:34;91216.50;;;28.72;nan
6395;BME280;3230;42.588;23.358;2022-07-29T13:21:13;91213.41;;;28.78;nan
6395;BME280;3230;42.588;23.358;2022-07-29T13:23:40;91204.56;;;28.77;nan
6395;BME280;3230;42.588;23.358;2022-07-29T13:26:10;91208.06;;;29.10;nan
6395;BME280;3230;42.588;23.358;2022-07-29T13:28:37;91202.28;;;29.04;nan
6395;BME280;3230;42.588;23.358;2022-07-29T13:31:02;91202.69;;;29.07;nan
6395;BME280;3230;42.588;23.358;2022-07-29T13:33:28;91192.66;;;29.03;nan
6395;BME280;3230;42.588;23.358;2022-07-29T13:35:54;91197.31;;;29.32;nan
6395;BME280;3230;42.588;23.358;2022-07-29T13:38:19;91199.97;;;28.99;nan
6395;BME280;3230;42.588;23.358;2022-07-29T13:40:45;91200.75;;;28.96;nan
6395;BME280;3230;42.588;23.358;2022-07-29T13:43:11;91184.91;;;28.84;nan
6395;BME280;3230;42.588;23.358;2022-07-29T13:45:36;91191.84;;;28.74;nan
6395;BME280;3230;42.588;23.358;2022-07-29T13:48:02;91198.03;;;28.89;nan
6395;BME280;3230;42.588;23.358;2022-07-29T13:50:27;91194.97;;;29.16;nan
6395;BME280;3230;42.588;23.358;2022-07-29T13:52:53;91188.44;;;29.20;nan
6395;BME280;3230;42.588;23.358;2022-07-29T13:55:19;91191.13;;;29.06;nan
6395;BME280;3230;42.588;23.358;2022-07-29T13:57:45;91188.78;;;28.94;nan
6395;BME280;3230;42.588;23.358;2022-07-29T14:00:12;91191.13;;;28.99;nan
6395;BME280;3230;42.588;23.358;2022-07-29T14:02:38;91191.13;;;29.02;nan
6395;BME280;3230;42.588;23.358;2022-07-29T14:05:04;91190.34;;;29.06;nan
6395;BME280;3230;42.588;23.358;2022-07-29T14:07:30;91196.53;;;29.02;nan
6395;BME280;3230;42.588;23.358;2022-07-29T14:09:55;91195.72;;;28.95;nan
6395;BME280;3230;42.588;23.358;2022-07-29T14:12:21;91193.81;;;29.10;nan